Time,TemperatureF,DewpointF,PressureIn,WindDirection,WindDirectionDegrees,WindSpeedMPH,WindSpeedGustMPH,Humidity,HourlyPrecipIn,Conditions,Clouds,dailyrainin,SoftwareType,DateUTC
2013-07-06 00:01:00,63.0,55.0,29.93,SSW,208,2.0,4.0,74,0.00,,,0.00,,2013-07-06 07:01:00,
2013-07-06 00:12:00,63.0,55.0,29.93,North,0,0.0,2.0,75,0.00,,,0.00,,2013-07-06 07:12:00,
2013-07-06 00:33:00,61.0,54.0,29.93,North,0,0.0,0.0,78,0.00,,,0.00,,2013-07-06 07:33:00,
2013-07-06 00:43:00,61.0,55.0,29.93,North,0,0.0,1.0,80,0.00,,,0.00,,2013-07-06 07:43:00,
2013-07-06 00:52:00,60.0,54.0,29.93,North,0,0.0,3.0,81,0.00,,,0.00,,2013-07-06 07:52:00,
2013-07-06 01:02:00,60.0,54.0,29.93,North,353,1.0,5.0,80,0.00,,,0.00,,2013-07-06 08:02:00,
2013-07-06 01:11:00,60.0,54.0,29.93,North,353,1.0,5.0,80,0.00,,,0.00,,2013-07-06 08:11:00,
2013-07-06 01:21:00,60.0,54.0,29.93,North,353,1.0,5.0,80,0.00,,,0.00,,2013-07-06 08:21:00,
2013-07-06 01:33:00,58.0,53.0,29.93,North,354,1.0,7.0,84,0.00,,,0.00,,2013-07-06 08:33:00,
2013-07-06 01:43:00,58.0,53.0,29.93,North,354,1.0,7.0,84,0.00,,,0.00,,2013-07-06 08:43:00,
2013-07-06 01:54:00,58.0,54.0,29.93,North,0,0.0,4.0,86,0.00,,,0.00,,2013-07-06 08:54:00,
2013-07-06 02:02:00,58.0,54.0,29.93,NW,310,1.0,5.0,87,0.00,,,0.00,,2013-07-06 09:02:00,
2013-07-06 02:11:00,58.0,55.0,29.93,NNW,331,1.0,4.0,89,0.00,,,0.00,,2013-07-06 09:11:00,
2013-07-06 02:22:00,58.0,55.0,29.93,NNW,329,2.0,4.0,89,0.00,,,0.00,,2013-07-06 09:22:00,
2013-07-06 02:33:00,58.0,55.0,29.93,North,0,0.0,1.0,90,0.00,,,0.00,,2013-07-06 09:33:00,
2013-07-06 02:43:00,58.0,55.0,29.93,North,0,0.0,1.0,90,0.00,,,0.00,,2013-07-06 09:43:00,
2013-07-06 02:52:00,57.0,54.0,29.93,North,0,0.0,2.0,90,0.00,,,0.00,,2013-07-06 09:52:00,
2013-07-06 03:02:00,57.0,53.0,29.93,North,0,0.0,1.0,88,0.00,,,0.00,,2013-07-06 10:02:00,
2013-07-06 03:11:00,57.0,53.0,29.93,North,0,0.0,1.0,88,0.00,,,0.00,,2013-07-06 10:11:00,
2013-07-06 03:21:00,58.0,54.0,29.93,North,0,0.0,0.0,87,0.00,,,0.00,,2013-07-06 10:21:00,
2013-07-06 03:33:00,57.0,53.0,29.93,North,0,0.0,1.0,88,0.00,,,0.00,,2013-07-06 10:33:00,
2013-07-06 03:42:00,57.0,53.0,29.93,North,0,0.0,1.0,88,0.00,,,0.00,,2013-07-06 10:42:00,
2013-07-06 03:53:00,57.0,54.0,29.93,North,0,0.0,3.0,90,0.00,,,0.00,,2013-07-06 10:53:00,
2013-07-06 04:01:00,57.0,54.0,29.93,North,0,0.0,1.0,91,0.00,,,0.00,,2013-07-06 11:01:00,
2013-07-06 04:11:00,57.0,54.0,29.93,North,0,0.0,0.0,91,0.00,,,0.00,,2013-07-06 11:11:00,
2013-07-06 04:21:00,56.0,53.0,29.93,North,0,0.0,0.0,91,0.00,,,0.00,,2013-07-06 11:21:00,
2013-07-06 04:32:00,56.0,53.0,29.93,North,0,0.0,0.0,91,0.00,,,0.00,,2013-07-06 11:32:00,
2013-07-06 04:42:00,56.0,54.0,29.93,North,0,0.0,0.0,92,0.00,,,0.00,,2013-07-06 11:42:00,
2013-07-06 04:52:00,56.0,54.0,29.93,North,0,0.0,0.0,92,0.00,,,0.00,,2013-07-06 11:52:00,
2013-07-06 05:01:00,55.0,53.0,29.93,North,0,0.0,0.0,92,0.00,,,0.00,,2013-07-06 12:01:00,
2013-07-06 05:11:00,55.0,53.0,29.93,North,0,0.0,0.0,92,0.00,,,0.00,,2013-07-06 12:11:00,
2013-07-06 05:21:00,55.0,53.0,29.93,North,0,0.0,0.0,92,0.00,,,0.00,,2013-07-06 12:21:00,
2013-07-06 05:33:00,55.0,53.0,29.93,North,0,0.0,2.0,93,0.00,,,0.00,,2013-07-06 12:33:00,
2013-07-06 05:43:00,55.0,53.0,29.93,North,0,0.0,1.0,93,0.00,,,0.00,,2013-07-06 12:43:00,
2013-07-06 05:52:00,55.0,53.0,29.93,North,0,0.0,1.0,93,0.00,,,0.00,,2013-07-06 12:52:00,
2013-07-06 06:22:00,56.0,54.0,29.93,North,0,0.0,1.0,93,0.00,,,0.00,,2013-07-06 13:22:00,
2013-07-06 06:33:00,56.0,54.0,29.93,North,0,0.0,3.0,93,0.00,,,0.00,,2013-07-06 13:33:00,
2013-07-06 06:52:00,56.0,54.0,29.93,North,0,0.0,4.0,94,0.00,,,0.00,,2013-07-06 13:52:00,
2013-07-06 07:02:00,56.0,54.0,29.93,SW,223,1.0,3.0,94,0.00,,,0.00,,2013-07-06 14:02:00,
2013-07-06 07:11:00,56.0,54.0,29.93,North,0,0.0,3.0,94,0.00,,,0.00,,2013-07-06 14:11:00,
2013-07-06 07:42:00,58.0,55.0,29.93,SW,215,3.0,5.0,91,0.00,,,0.00,,2013-07-06 14:42:00,
2013-07-06 07:53:00,57.0,54.0,29.94,North,0,0.0,4.0,91,0.00,,,0.00,,2013-07-06 14:53:00,
2013-07-06 08:02:00,58.0,55.0,29.94,SW,229,1.0,3.0,90,0.00,,,0.00,,2013-07-06 15:02:00,
2013-07-06 08:11:00,58.0,55.0,29.94,SSW,212,2.0,4.0,89,0.00,,,0.00,,2013-07-06 15:11:00,
2013-07-06 08:22:00,58.0,55.0,29.94,SSW,201,2.0,3.0,90,0.00,,,0.00,,2013-07-06 15:22:00,
2013-07-06 08:33:00,58.0,55.0,29.94,SSW,201,2.0,3.0,90,0.00,,,0.00,,2013-07-06 15:33:00,
2013-07-06 08:43:00,59.0,55.0,29.94,SW,226,1.0,4.0,86,0.00,,,0.00,,2013-07-06 15:43:00,
2013-07-06 09:12:00,61.0,54.0,29.94,NW,306,1.0,6.0,78,0.00,,,0.00,,2013-07-06 16:12:00,
2013-07-06 09:22:00,62.0,54.0,29.94,NW,320,3.0,5.0,75,0.00,,,0.00,,2013-07-06 16:22:00,
2013-07-06 09:53:00,64.0,54.0,29.93,NNW,329,4.0,10.0,69,0.00,,,0.00,,2013-07-06 16:53:00,
2013-07-06 10:12:00,64.0,54.0,29.93,North,360,4.0,10.0,69,0.00,,,0.00,,2013-07-06 17:12:00,
2013-07-06 10:34:00,65.0,54.0,29.93,NNE,25,6.0,12.0,68,0.00,,,0.00,,2013-07-06 17:34:00,
2013-07-06 10:43:00,65.0,54.0,29.93,North,9,3.0,7.0,68,0.00,,,0.00,,2013-07-06 17:43:00,
2013-07-06 10:55:00,65.0,54.0,29.93,North,5,2.0,9.0,68,0.00,,,0.00,,2013-07-06 17:55:00,
2013-07-06 11:02:00,65.0,54.0,29.92,North,357,2.0,9.0,67,0.00,,,0.00,,2013-07-06 18:02:00,
2013-07-06 11:11:00,66.0,54.0,29.92,NNW,340,2.0,8.0,66,0.00,,,0.00,,2013-07-06 18:11:00,
2013-07-06 11:34:00,66.0,54.0,29.92,NE,41,3.0,10.0,65,0.00,,,0.00,,2013-07-06 18:34:00,
2013-07-06 11:43:00,66.0,54.0,29.92,NE,41,3.0,10.0,65,0.00,,,0.00,,2013-07-06 18:43:00,
2013-07-06 12:02:00,69.0,56.0,29.92,NW,311,1.0,5.0,63,0.00,,,0.00,,2013-07-06 19:02:00,
2013-07-06 12:11:00,69.0,55.0,29.92,NW,317,1.0,11.0,61,0.00,,,0.00,,2013-07-06 19:11:00,
2013-07-06 12:22:00,68.0,54.0,29.91,NNE,28,5.0,11.0,60,0.00,,,0.00,,2013-07-06 19:22:00,
2013-07-06 12:33:00,69.0,55.0,29.91,NNW,347,2.0,7.0,60,0.00,,,0.00,,2013-07-06 19:33:00,
2013-07-06 12:42:00,70.0,54.0,29.91,North,359,3.0,10.0,56,0.00,,,0.00,,2013-07-06 19:42:00,
2013-07-06 12:53:00,70.0,55.0,29.91,North,9,4.0,6.0,58,0.00,,,0.00,,2013-07-06 19:53:00,
2013-07-06 13:12:00,70.0,54.0,29.91,NNW,332,3.0,7.0,57,0.00,,,0.00,,2013-07-06 20:12:00,
2013-07-06 13:33:00,71.0,55.0,29.91,North,7,5.0,10.0,57,0.00,,,0.00,,2013-07-06 20:33:00,
2013-07-06 13:44:00,71.0,55.0,29.91,North,7,5.0,10.0,57,0.00,,,0.00,,2013-07-06 20:44:00,
2013-07-06 13:53:00,72.0,55.0,29.90,North,2,4.0,10.0,56,0.00,,,0.00,,2013-07-06 20:53:00,
2013-07-06 14:22:00,73.0,53.0,29.90,NE,39,2.0,6.0,50,0.00,,,0.00,,2013-07-06 21:22:00,
2013-07-06 14:34:00,73.0,50.0,29.89,North,352,6.0,12.0,44,0.00,,,0.00,,2013-07-06 21:34:00,
2013-07-06 14:43:00,73.0,50.0,29.89,NNW,342,4.0,8.0,44,0.00,,,0.00,,2013-07-06 21:43:00,
2013-07-06 15:02:00,73.0,47.0,29.89,North,1,6.0,12.0,40,0.00,,,0.00,,2013-07-06 22:02:00,
2013-07-06 15:11:00,73.0,47.0,29.89,NW,312,2.0,10.0,40,0.00,,,0.00,,2013-07-06 22:11:00,
2013-07-06 15:34:00,74.0,50.0,29.88,NNW,343,4.0,9.0,43,0.00,,,0.00,,2013-07-06 22:34:00,
2013-07-06 16:01:00,75.0,48.0,29.87,NNE,12,1.0,7.0,39,0.00,,,0.00,,2013-07-06 23:01:00,
2013-07-06 16:11:00,75.0,48.0,29.87,NNW,339,3.0,10.0,39,0.00,,,0.00,,2013-07-06 23:11:00,
2013-07-06 16:24:00,75.0,48.0,29.87,NNW,343,2.0,7.0,39,0.00,,,0.00,,2013-07-06 23:24:00,
2013-07-06 16:34:00,75.0,50.0,29.87,WNW,297,2.0,6.0,41,0.00,,,0.00,,2013-07-06 23:34:00,
2013-07-06 16:44:00,75.0,50.0,29.87,NNE,13,2.0,10.0,42,0.00,,,0.00,,2013-07-06 23:44:00,
2013-07-06 17:01:00,73.0,50.0,29.87,WNW,296,3.0,9.0,45,0.00,,,0.00,,2013-07-07 00:01:00,
2013-07-06 17:33:00,74.0,51.0,29.86,NW,312,3.0,13.0,44,0.00,,,0.00,,2013-07-07 00:33:00,
2013-07-06 17:43:00,74.0,52.0,29.86,NNW,340,2.0,7.0,46,0.00,,,0.00,,2013-07-07 00:43:00,
2013-07-06 18:01:00,74.0,51.0,29.86,NW,317,3.0,11.0,44,0.00,,,0.00,,2013-07-07 01:01:00,
2013-07-06 18:12:00,74.0,50.0,29.86,NNW,328,3.0,9.0,43,0.00,,,0.00,,2013-07-07 01:12:00,
2013-07-06 18:21:00,74.0,50.0,29.86,NNW,328,3.0,9.0,43,0.00,,,0.00,,2013-07-07 01:21:00,
2013-07-06 18:34:00,74.0,50.0,29.86,NNW,328,3.0,9.0,43,0.00,,,0.00,,2013-07-07 01:34:00,
2013-07-06 18:42:00,74.0,50.0,29.86,NNW,328,3.0,9.0,43,0.00,,,0.00,,2013-07-07 01:42:00,
2013-07-06 18:53:00,74.0,50.0,29.86,NNW,328,3.0,9.0,43,0.00,,,0.00,,2013-07-07 01:53:00,
2013-07-06 19:16:00,73.0,52.0,29.84,North,3,3.0,8.0,48,0.00,,,0.00,,2013-07-07 02:16:00,
2013-07-06 19:25:00,73.0,52.0,29.84,North,3,3.0,8.0,48,0.00,,,0.00,,2013-07-07 02:25:00,
2013-07-06 19:41:00,73.0,52.0,29.84,North,3,3.0,8.0,48,0.00,,,0.00,,2013-07-07 02:41:00,
2013-07-06 20:41:00,73.0,52.0,29.84,North,3,3.0,7.0,48,0.00,,,0.00,,2013-07-07 03:41:00,
2013-07-06 20:52:00,73.0,52.0,29.84,North,3,3.0,7.0,48,0.00,,,0.00,,2013-07-07 03:52:00,
2013-07-06 21:00:00,73.0,52.0,29.84,North,3,3.0,7.0,48,0.00,,,0.00,,2013-07-07 04:00:00,
2013-07-06 21:01:00,73.0,52.0,29.84,North,3,3.0,7.0,48,0.00,,,0.00,,2013-07-07 04:01:00,
2013-07-06 21:11:00,73.0,52.0,29.84,North,3,3.0,7.0,48,0.00,,,0.00,,2013-07-07 04:11:00,
2013-07-06 23:01:00,65.0,55.0,29.86,North,6,1.0,4.0,69,0.00,,,0.00,,2013-07-07 06:01:00,
2013-07-06 23:11:00,65.0,55.0,29.86,North,6,1.0,4.0,69,0.00,,,0.00,,2013-07-07 06:11:00,
2013-07-06 23:21:00,65.0,53.0,29.86,NNE,20,1.0,6.0,64,0.00,,,0.00,,2013-07-07 06:21:00,
2013-07-06 23:32:00,65.0,53.0,29.86,NE,36,2.0,4.0,64,0.00,,,0.00,,2013-07-07 06:32:00,
2013-07-06 23:43:00,65.0,53.0,29.86,North,7,2.0,6.0,64,0.00,,,0.00,,2013-07-07 06:43:00,
2013-07-06 23:52:00,64.0,52.0,29.86,North,0,0.0,3.0,65,0.00,,,0.00,,2013-07-07 06:52:00,